Airport View

Enter AWOS ICAO identifier for current METAR.

ex. KFNL

K3D2 250125Z AUTO 19004KT 10SM CLR 16/14 A2989 RMK AO2 T01580142

25 May 2020 01:26

Frequency: 124.175

Phone: 920-854-5559

Other Area AWOS: K2P2 - KMNM - KSUE - KOCQ

TAF KGRB 242337Z 2500/2524 16005KT P6SM SCT250 FM251000 16004KT 1SM BR SCT002 FM251300 18006KT P6SM BKN110 FM251800 19010G18KT P6SM VCTS SCT050CB BKN120